Time;durP1;ratioP1;P1;durP2;ratioP2;P2;SDS_P1;SDS_P2;PMS_P1;PMS_P2;Temp;Humidity;BMP_temperature;BMP_pressure;BME280_temperature;BME280_humidity;BME280_pressure;Samples;Min_cycle;Max_cycle;Signal;HPM_P1;HPM_P2
2023/06/01 00:01:13;;;;;;;2.67;1.70;;;;;;;10.80;91.13;98634.25;2604415;28;20053;-85
2023/06/01 00:02:33;;;;;;;2.72;1.85;;;;;;;10.77;91.76;98636.97;2603270;28;20048;-84
2023/06/01 00:03:48;;;;;;;3.03;1.90;;;;;;;10.79;92.29;98634.28;2601834;28;20489;-85
2023/06/01 00:05:04;;;;;;;3.88;2.00;;;;;;;10.66;95.51;98631.13;2603223;28;20045;-85
2023/06/01 00:06:20;;;;;;;2.65;2.05;;;;;;;10.47;97.75;98636.81;2600768;28;20060;-85
2023/06/01 00:07:36;;;;;;;3.78;1.90;;;;;;;10.40;97.46;98633.44;2603145;28;20073;-84
2023/06/01 00:08:51;;;;;;;3.03;1.70;;;;;;;10.38;96.15;98634.41;2602707;28;20048;-85
2023/06/01 00:10:07;;;;;;;3.60;2.10;;;;;;;10.36;95.35;98628.34;2601422;28;20052;-85
2023/06/01 00:11:25;;;;;;;2.38;1.95;;;;;;;10.34;94.61;98637.97;2604834;28;20104;-84
2023/06/01 00:12:40;;;;;;;2.17;1.98;;;;;;;10.45;93.16;98633.38;2601767;28;20673;-84
2023/06/01 00:13:56;;;;;;;3.33;1.75;;;;;;;10.27;93.23;98630.28;2603699;28;20050;-86
2023/06/01 00:15:11;;;;;;;2.25;1.63;;;;;;;9.90;97.32;98628.50;2602939;28;20091;-84
2023/06/01 00:16:28;;;;;;;2.58;1.83;;;;;;;9.89;96.12;98632.00;2601990;28;20383;-84
2023/06/01 00:17:44;;;;;;;4.63;2.40;;;;;;;9.86;97.75;98632.06;2603292;28;20041;-84
2023/06/01 00:19:03;;;;;;;5.47;2.05;;;;;;;9.89;94.88;98632.00;2605459;28;20052;-85
2023/06/01 00:20:18;;;;;;;2.63;1.80;;;;;;;9.89;97.13;98632.00;2604272;28;20128;-85
2023/06/01 00:21:35;;;;;;;3.50;1.60;;;;;;;9.83;97.09;98625.16;2601526;28;20057;-84
2023/06/01 00:22:51;;;;;;;2.42;1.95;;;;;;;9.89;96.84;98635.50;2601267;28;20057;-85
2023/06/01 00:24:07;;;;;;;2.50;1.63;;;;;;;9.96;94.35;98628.38;2601486;28;20045;-85
2023/06/01 00:25:22;;;;;;;1.95;1.55;;;;;;;9.91;93.13;98622.38;2604753;28;20094;-84
2023/06/01 00:26:38;;;;;;;3.28;1.80;;;;;;;9.92;94.56;98631.09;2604782;28;20049;-85
2023/06/01 00:27:53;;;;;;;4.82;1.92;;;;;;;9.81;95.14;98632.19;2601840;28;20061;-85
2023/06/01 00:29:09;;;;;;;4.30;1.90;;;;;;;9.91;97.41;98618.91;2602208;28;20131;-84
2023/06/01 00:30:25;;;;;;;3.13;2.00;;;;;;;9.90;97.92;98618.03;2600960;28;20496;-85
2023/06/01 00:31:40;;;;;;;3.03;2.30;;;;;;;9.93;100.00;98617.09;2602159;28;20049;-84
2023/06/01 00:32:56;;;;;;;4.13;1.83;;;;;;;9.92;100.00;98621.50;2603752;28;20103;-86
2023/06/01 00:34:11;;;;;;;4.28;1.83;;;;;;;9.91;100.00;98622.38;2601783;28;20049;-85
2023/06/01 00:35:27;;;;;;;4.13;1.90;;;;;;;9.94;100.00;98622.31;2603155;28;20136;-85
2023/06/01 00:36:43;;;;;;;3.95;2.00;;;;;;;9.83;100.00;98621.69;2603606;28;20042;-85
2023/06/01 00:37:59;;;;;;;4.20;1.90;;;;;;;9.88;100.00;98623.31;2601957;28;20409;-84
2023/06/01 00:39:15;;;;;;;2.05;1.80;;;;;;;9.91;100.00;98621.53;2602072;28;20067;-84
2023/06/01 00:40:30;;;;;;;2.50;1.80;;;;;;;9.88;100.00;98625.06;2602172;28;20052;-84
2023/06/01 00:41:46;;;;;;;3.00;1.75;;;;;;;9.88;100.00;98627.66;2604157;28;20696;-85
2023/06/01 00:43:02;;;;;;;3.55;1.88;;;;;;;9.95;99.74;98616.19;2602417;28;20091;-85
2023/06/01 00:44:17;;;;;;;4.40;2.15;;;;;;;9.98;100.00;98618.72;2602846;28;20056;-85
2023/06/01 00:45:33;;;;;;;2.67;1.90;;;;;;;9.96;99.13;98619.66;2601804;28;20494;-85
2023/06/01 00:46:50;;;;;;;4.30;2.00;;;;;;;9.93;99.92;98618.00;2602613;28;20053;-84
2023/06/01 00:48:06;;;;;;;2.97;1.80;;;;;;;9.89;100.00;98619.81;2602114;28;20053;-84
2023/06/01 00:49:22;;;;;;;3.03;1.90;;;;;;;9.91;99.49;98617.13;2602095;28;20049;-85
2023/06/01 00:50:38;;;;;;;2.47;1.90;;;;;;;9.92;100.00;98618.88;2604429;28;20041;-85
2023/06/01 00:51:54;;;;;;;5.55;2.00;;;;;;;9.96;98.36;98617.91;2602901;28;20050;-84
2023/06/01 00:53:16;;;;;;;3.03;2.00;;;;;;;9.94;96.71;98619.72;2601804;28;20057;-85
2023/06/01 00:54:32;;;;;;;;;;;;;;;9.98;98.64;98618.72;2601826;28;20064;-86
2023/06/01 00:55:48;;;;;;;4.32;2.03;;;;;;;9.96;97.87;98617.91;2602793;28;19983;-85
2023/06/01 00:57:05;;;;;;;3.00;1.90;;;;;;;9.99;97.68;98619.59;2602750;28;20481;-84
2023/06/01 00:58:21;;;;;;;2.45;1.83;;;;;;;9.96;96.35;98612.69;2601947;28;20049;-85
2023/06/01 00:59:38;;;;;;;2.92;2.03;;;;;;;9.95;96.05;98617.94;2604648;28;20056;-84
2023/06/01 01:00:53;;;;;;;3.13;1.90;;;;;;;9.73;98.47;98627.09;2603170;28;20045;-85
2023/06/01 01:02:09;;;;;;;3.47;2.13;;;;;;;9.59;99.20;98622.19;2603909;28;20084;-85
2023/06/01 01:03:26;;;;;;;2.10;1.80;;;;;;;9.50;100.00;98619.75;2601979;28;20059;-84
2023/06/01 01:04:42;;;;;;;6.30;2.10;;;;;;;9.65;95.97;98617.72;2603383;28;20071;-85
2023/06/01 01:06:11;;;;;;;3.53;2.08;;;;;;;9.40;100.00;98613.00;2602777;28;20053;-85
2023/06/01 01:07:47;;;;;;;2.47;1.77;;;;;;;9.22;100.00;98619.44;2601442;28;20051;-85
2023/06/01 01:09:28;;;;;;;3.45;1.73;;;;;;;9.38;100.00;98612.16;2570332;28;20051;-85
2023/06/01 01:10:55;;;;;;;3.28;2.30;;;;;;;9.45;100.00;98611.16;2604245;28;20075;-85
2023/06/01 01:12:30;;;;;;;3.42;2.35;;;;;;;9.58;100.00;98615.25;2602861;28;20079;-85
2023/06/01 01:13:52;;;;;;;3.92;2.15;;;;;;;9.52;100.00;98612.75;2601489;28;20042;-85
2023/06/01 01:15:12;;;;;;;;;;;;;;;9.48;100.00;98605.88;2604492;28;20056;-85
2023/06/01 01:16:35;;;;;;;4.15;1.90;;;;;;;9.62;100.00;98618.63;2604585;28;20493;-85
2023/06/01 01:17:56;;;;;;;4.63;2.35;;;;;;;9.64;100.00;98616.00;2602472;28;20054;-85
2023/06/01 01:19:21;;;;;;;3.73;2.40;;;;;;;9.61;100.00;98611.69;2602211;28;20488;-85
2023/06/01 01:20:41;;;;;;;5.28;2.05;;;;;;;9.59;100.00;98616.97;2603504;28;20480;-86
2023/06/01 01:22:15;;;;;;;4.25;1.88;;;;;;;9.65;98.91;98607.25;2602021;28;20049;-85
2023/06/01 01:23:48;;;;;;;3.00;2.10;;;;;;;9.68;98.70;98618.53;2602498;28;20041;-86
2023/06/01 01:25:06;;;;;;;;;;;;;;;9.68;100.00;98613.28;2603705;28;20115;-85
2023/06/01 01:26:24;;;;;;;3.03;1.83;;;;;;;9.60;100.00;98613.47;2603230;28;20357;-85
2023/06/01 01:27:52;;;;;;;3.17;2.00;;;;;;;9.43;100.00;98613.81;2601465;28;20049;-85
2023/06/01 01:29:11;;;;;;;3.35;2.00;;;;;;;9.46;100.00;98612.88;2602731;28;20128;-85
2023/06/01 01:30:28;;;;;;;6.40;2.17;;;;;;;9.41;100.00;98602.53;2601049;28;20046;-85
2023/06/01 01:31:45;;;;;;;3.72;1.98;;;;;;;9.21;100.00;98615.13;2601069;28;20073;-85
2023/06/01 01:33:03;;;;;;;4.15;2.10;;;;;;;9.14;100.00;98604.78;2603433;28;20045;-85
2023/06/01 01:34:20;;;;;;;3.30;2.05;;;;;;;8.88;100.00;98603.53;2602863;28;20078;-85
2023/06/01 01:35:36;;;;;;;4.63;2.33;;;;;;;8.98;100.00;98606.00;2603431;28;20049;-85
2023/06/01 01:36:52;;;;;;;4.22;2.13;;;;;;;8.99;100.00;98603.31;2603239;28;20045;-85
2023/06/01 01:38:08;;;;;;;3.45;2.00;;;;;;;9.05;100.00;98597.13;2601333;28;20056;-85
2023/06/01 01:39:23;;;;;;;3.22;2.20;;;;;;;9.03;100.00;98605.00;2602913;28;20524;-84
2023/06/01 01:40:39;;;;;;;4.18;1.88;;;;;;;9.12;100.00;98603.09;2605679;28;20543;-85
2023/06/01 01:41:55;;;;;;;4.85;2.28;;;;;;;9.08;100.00;98599.72;2603304;28;20061;-85
2023/06/01 01:43:10;;;;;;;3.20;2.13;;;;;;;9.12;100.00;98603.09;2605702;28;20056;-85
2023/06/01 01:44:29;;;;;;;3.85;1.77;;;;;;;9.07;100.00;98600.56;2592537;28;20621;-85
2023/06/01 01:45:51;;;;;;;2.92;2.10;;;;;;;9.15;100.00;98606.53;2600003;28;20052;-85
2023/06/01 01:47:41;;;;;;;4.65;2.40;;;;;;;9.21;100.00;98605.53;2604672;28;20355;-85
2023/06/01 01:49:30;;;;;;;2.15;1.75;;;;;;;9.25;100.00;98601.97;2604998;28;20080;-85
2023/06/01 01:51:10;;;;;;;3.28;2.28;;;;;;;9.25;100.00;98601.13;2604873;28;20045;-85
2023/06/01 01:52:33;;;;;;;3.35;2.13;;;;;;;9.25;100.00;98601.97;2597309;28;20073;-85
2023/06/01 01:53:51;;;;;;;2.97;2.00;;;;;;;9.16;100.00;98604.78;2605009;28;20504;-85
2023/06/01 01:55:08;;;;;;;7.00;2.45;;;;;;;9.14;100.00;98596.97;2605511;28;20484;-87
2023/06/01 01:56:25;;;;;;;5.30;1.92;;;;;;;9.15;100.00;98596.06;2603413;28;20049;-85
2023/06/01 01:57:42;;;;;;;4.75;2.60;;;;;;;9.19;100.00;98597.72;2604254;28;20136;-86
2023/06/01 01:58:59;;;;;;;3.13;2.10;;;;;;;9.12;100.00;98603.97;2604051;28;20095;-85
2023/06/01 02:00:17;;;;;;;4.68;2.15;;;;;;;9.15;100.00;98603.03;2603018;28;20053;-85
2023/06/01 02:01:33;;;;;;;2.50;2.10;;;;;;;9.16;100.00;98591.72;2604803;28;20056;-85
2023/06/01 02:02:48;;;;;;;3.20;2.22;;;;;;;9.13;100.00;98589.13;2603294;28;20049;-85
2023/06/01 02:04:07;;;;;;;3.75;2.20;;;;;;;9.15;100.00;98593.47;2603171;28;20451;-85
2023/06/01 02:05:23;;;;;;;3.45;2.00;;;;;;;9.05;100.00;98599.75;2603431;28;20052;-86
2023/06/01 02:06:38;;;;;;;2.55;1.80;;;;;;;9.03;100.00;98589.34;2605802;28;20059;-85
2023/06/01 02:07:54;;;;;;;3.00;1.95;;;;;;;9.02;100.00;98597.19;2603903;28;20044;-86
2023/06/01 02:09:10;;;;;;;2.88;1.88;;;;;;;9.01;100.00;98596.34;2604474;28;20057;-85
2023/06/01 02:10:25;;;;;;;3.30;1.77;;;;;;;8.83;100.00;98597.56;2603462;28;20520;-86
2023/06/01 02:11:40;;;;;;;2.80;2.00;;;;;;;8.87;100.00;98591.38;2605055;28;20417;-83
2023/06/01 02:12:56;;;;;;;3.13;2.10;;;;;;;8.88;100.00;98587.03;2593782;28;20720;-83
2023/06/01 02:14:12;;;;;;;3.72;2.13;;;;;;;8.66;100.00;98589.13;2596380;28;20037;-84
2023/06/01 02:15:27;;;;;;;3.42;2.03;;;;;;;8.72;100.00;98589.88;2602190;28;20315;-84
2023/06/01 02:16:44;;;;;;;2.55;2.00;;;;;;;8.55;100.00;98590.22;2604845;28;20080;-86
2023/06/01 02:18:00;;;;;;;3.17;1.80;;;;;;;8.59;100.00;98588.38;2604059;28;20577;-85
2023/06/01 02:19:16;;;;;;;2.45;2.17;;;;;;;8.55;100.00;98592.81;2606164;28;20045;-84
2023/06/01 02:20:31;;;;;;;3.10;2.08;;;;;;;8.44;100.00;98586.88;2604764;28;20076;-84
2023/06/01 02:21:47;;;;;;;4.18;1.98;;;;;;;8.42;100.00;98589.50;2603152;28;20987;-85
2023/06/01 02:23:02;;;;;;;2.35;2.00;;;;;;;8.27;100.00;98593.25;2604807;28;20493;-84
2023/06/01 02:24:18;;;;;;;3.08;2.15;;;;;;;8.42;100.00;98589.50;2604345;28;20060;-85
2023/06/01 02:25:34;;;;;;;2.42;1.88;;;;;;;8.30;100.00;98587.09;2604382;28;20049;-84
2023/06/01 02:26:52;;;;;;;4.32;2.33;;;;;;;8.17;100.00;98584.72;2602489;28;20045;-85
2023/06/01 02:28:07;;;;;;;3.28;2.00;;;;;;;8.18;100.00;98588.19;2605226;28;20172;-84
2023/06/01 02:29:23;;;;;;;2.58;1.92;;;;;;;8.22;100.00;98589.84;2602367;28;20060;-85
2023/06/01 02:30:38;;;;;;;3.65;2.25;;;;;;;8.18;100.00;98593.38;2604475;28;20053;-84
2023/06/01 02:31:55;;;;;;;4.03;2.30;;;;;;;8.20;100.00;98591.63;2603645;28;20087;-85
2023/06/01 02:33:11;;;;;;;7.00;2.22;;;;;;;8.28;100.00;98586.28;2603711;28;20053;-86
2023/06/01 02:34:26;;;;;;;5.95;2.45;;;;;;;8.44;100.00;98589.50;2603260;28;20042;-84
2023/06/01 02:35:42;;;;;;;3.25;2.42;;;;;;;8.48;100.00;98583.34;2605477;28;20112;-85
2023/06/01 02:36:58;;;;;;;3.35;2.20;;;;;;;8.45;100.00;98586.00;2602311;28;20048;-85
2023/06/01 02:38:14;;;;;;;3.78;2.10;;;;;;;8.50;100.00;98592.03;2602142;28;20065;-86
2023/06/01 02:39:30;;;;;;;2.90;2.00;;;;;;;8.64;100.00;98585.69;2604410;28;20104;-83
2023/06/01 02:40:45;;;;;;;4.32;2.00;;;;;;;8.65;100.00;98592.63;2600115;28;20049;-84
2023/06/01 02:42:01;;;;;;;4.88;2.70;;;;;;;8.55;100.00;98592.81;2604833;28;20088;-84
2023/06/01 02:43:17;;;;;;;3.38;2.10;;;;;;;8.55;100.00;98587.59;2603976;28;20488;-84
2023/06/01 02:44:33;;;;;;;4.75;2.10;;;;;;;8.58;100.00;98586.66;2604050;28;20111;-84
2023/06/01 02:45:48;;;;;;;2.80;2.03;;;;;;;8.56;100.00;98588.44;2603122;28;20049;-84
2023/06/01 02:47:05;;;;;;;3.95;2.35;;;;;;;8.42;100.00;98586.06;2602292;28;20525;-85
2023/06/01 02:48:21;;;;;;;2.97;2.10;;;;;;;8.41;100.00;98590.41;2602758;28;20049;-85
2023/06/01 02:49:36;;;;;;;3.30;2.25;;;;;;;8.55;100.00;98589.34;2604518;28;20050;-85
2023/06/01 02:50:52;;;;;;;6.65;2.10;;;;;;;8.40;100.00;98585.22;2603521;28;20088;-84
2023/06/01 02:52:08;;;;;;;3.08;2.05;;;;;;;8.37;100.00;98587.88;2602549;28;20049;-85
2023/06/01 02:53:27;;;;;;;3.97;2.30;;;;;;;8.26;100.00;98588.06;2604466;28;20045;-84
2023/06/01 02:54:42;;;;;;;3.85;2.20;;;;;;;8.47;100.00;98579.88;2603151;28;20045;-88
2023/06/01 02:55:58;;;;;;;7.68;2.50;;;;;;;8.40;100.00;98595.66;2605140;28;20048;-84
2023/06/01 02:57:13;;;;;;;3.42;2.40;;;;;;;8.17;100.00;98589.06;2603651;28;20467;-85
2023/06/01 02:58:29;;;;;;;2.97;2.30;;;;;;;8.22;100.00;98591.59;2604845;28;20101;-84
2023/06/01 02:59:45;;;;;;;3.63;2.50;;;;;;;8.27;100.00;98585.44;2603923;28;20038;-84
2023/06/01 03:01:00;;;;;;;3.63;2.20;;;;;;;8.42;100.00;98581.69;2591335;28;20042;-85
2023/06/01 03:02:16;;;;;;;3.97;2.60;;;;;;;8.47;100.00;98579.00;2597658;28;20611;-84
2023/06/01 03:03:32;;;;;;;4.03;2.20;;;;;;;8.49;100.00;98577.22;2601891;28;20073;-85
2023/06/01 03:04:48;;;;;;;4.10;2.20;;;;;;;8.48;100.00;98578.13;2604192;28;20049;-84
2023/06/01 03:06:05;;;;;;;3.35;2.00;;;;;;;8.49;100.00;98585.06;2601718;28;20049;-84
2023/06/01 03:07:21;;;;;;;3.50;2.20;;;;;;;8.50;100.00;98589.41;2602652;28;20125;-84
2023/06/01 03:08:37;;;;;;;3.83;2.33;;;;;;;8.50;100.00;98578.09;2593590;28;20753;-84
2023/06/01 03:09:52;;;;;;;2.63;2.10;;;;;;;8.48;100.00;98576.38;2596783;28;20056;-84
2023/06/01 03:11:08;;;;;;;3.95;2.40;;;;;;;8.36;100.00;98579.19;2594349;28;20053;-86
2023/06/01 03:12:23;;;;;;;3.42;2.00;;;;;;;8.37;100.00;98580.91;2596761;28;20464;-84
2023/06/01 03:13:39;;;;;;;2.50;1.80;;;;;;;8.30;100.00;98584.50;2602119;28;20087;-84
2023/06/01 03:14:54;;;;;;;3.50;2.47;;;;;;;8.30;100.00;98582.75;2605222;28;20599;-84
2023/06/01 03:16:10;;;;;;;4.43;2.38;;;;;;;8.29;100.00;98582.78;2602561;28;20050;-84
2023/06/01 03:17:26;;;;;;;4.38;2.17;;;;;;;8.20;100.00;98582.06;2604374;28;20042;-84
2023/06/01 03:18:41;;;;;;;3.45;2.30;;;;;;;8.33;100.00;98577.50;2604395;28;20045;-85
2023/06/01 03:19:57;;;;;;;4.43;2.05;;;;;;;8.40;100.00;98580.84;2604368;28;20049;-85
2023/06/01 03:21:12;;;;;;;4.50;2.20;;;;;;;8.40;100.00;98582.63;2602584;28;20053;-86
2023/06/01 03:22:28;;;;;;;5.13;2.30;;;;;;;8.37;100.00;98587.88;2603258;28;20275;-84
2023/06/01 03:23:43;;;;;;;5.78;2.25;;;;;;;8.41;100.00;98582.56;2592015;28;20099;-84
2023/06/01 03:25:00;;;;;;;3.75;2.20;;;;;;;8.40;100.00;98580.84;2599118;28;20144;-84
2023/06/01 03:26:18;;;;;;;3.28;2.05;;;;;;;8.39;100.00;98586.97;2602183;28;20053;-84
2023/06/01 03:27:34;;;;;;;2.45;2.00;;;;;;;8.43;100.00;98587.78;2600041;28;20559;-84
2023/06/01 03:28:49;;;;;;;4.22;2.45;;;;;;;8.43;100.00;98588.63;2603549;28;20054;-85
2023/06/01 03:30:09;;;;;;;3.28;2.38;;;;;;;8.47;100.00;98590.31;2602239;28;20397;-84
2023/06/01 03:31:25;;;;;;;3.45;1.90;;;;;;;8.43;100.00;98593.00;2602695;28;20049;-84
2023/06/01 03:32:42;;;;;;;3.45;1.90;;;;;;;8.37;100.00;98593.09;2601865;28;20045;-84
2023/06/01 03:33:57;;;;;;;5.00;2.20;;;;;;;8.37;100.00;98591.34;2602839;28;20053;-85
2023/06/01 03:35:13;;;;;;;3.17;2.03;;;;;;;8.43;100.00;98587.78;2602298;28;20193;-88
2023/06/01 03:36:29;;;;;;;3.72;2.10;;;;;;;8.41;100.00;98589.56;2603498;28;20064;-84
2023/06/01 03:37:45;;;;;;;3.47;2.35;;;;;;;8.41;100.00;98587.78;2601914;28;20489;-86
2023/06/01 03:39:05;;;;;;;3.88;2.53;;;;;;;8.45;100.00;98588.59;2600433;28;20119;-85
2023/06/01 03:40:21;;;;;;;2.67;2.13;;;;;;;8.24;100.00;98585.50;2603059;28;20481;-84
2023/06/01 03:41:37;;;;;;;4.07;2.20;;;;;;;8.16;100.00;98585.56;2602163;28;20370;-84
2023/06/01 03:42:52;;;;;;;3.20;2.25;;;;;;;8.05;100.00;98583.16;2605135;28;20052;-84
2023/06/01 03:44:09;;;;;;;2.75;2.08;;;;;;;7.90;100.00;98581.66;2604052;28;20076;-85
2023/06/01 03:45:24;;;;;;;2.42;2.08;;;;;;;7.88;100.00;98583.41;2602729;28;20049;-83
2023/06/01 03:46:40;;;;;;;3.63;2.50;;;;;;;8.11;100.00;98582.19;2605481;28;20358;-84
2023/06/01 03:47:56;;;;;;;5.75;2.75;;;;;;;8.20;100.00;98579.44;2603844;28;20508;-84
2023/06/01 03:49:11;;;;;;;3.35;2.65;;;;;;;8.29;100.00;98569.72;2603447;28;20509;-83
2023/06/01 03:50:27;;;;;;;3.33;2.22;;;;;;;8.38;100.00;98579.16;2602644;28;20049;-84
2023/06/01 03:51:42;;;;;;;4.05;2.35;;;;;;;8.43;100.00;98574.72;2603761;28;20045;-84
2023/06/01 03:52:58;;;;;;;5.28;2.92;;;;;;;8.44;100.00;98566.00;2603327;28;20061;-84
2023/06/01 03:54:14;;;;;;;4.95;2.58;;;;;;;8.48;100.00;98565.94;2603461;28;20080;-84
2023/06/01 03:55:30;;;;;;;3.10;2.05;;;;;;;8.53;100.00;98575.47;2601882;28;20053;-84
2023/06/01 03:56:46;;;;;;;4.50;2.55;;;;;;;8.53;100.00;98573.72;2602680;28;20044;-84
2023/06/01 03:58:02;;;;;;;5.43;2.30;;;;;;;8.60;100.00;98577.09;2602329;28;20412;-85
2023/06/01 03:59:18;;;;;;;4.57;2.53;;;;;;;8.51;100.00;98572.03;2605442;28;20091;-84
2023/06/01 04:00:34;;;;;;;3.45;2.53;;;;;;;8.39;100.00;98570.47;2602808;28;20476;-85
2023/06/01 04:01:51;;;;;;;4.47;2.70;;;;;;;8.39;100.00;98570.47;2602038;28;20041;-83
2023/06/01 04:03:06;;;;;;;4.35;2.63;;;;;;;8.40;100.00;98572.19;2602296;28;20073;-84
2023/06/01 04:04:28;;;;;;;3.75;2.70;;;;;;;8.40;100.00;98572.19;2602594;28;20052;-85
2023/06/01 04:05:49;;;;;;;3.25;2.45;;;;;;;8.47;100.00;98569.44;2601457;28;20049;-85
2023/06/01 04:07:05;;;;;;;5.18;2.75;;;;;;;8.79;100.00;98577.59;2602047;28;20080;-84
2023/06/01 04:08:21;;;;;;;5.03;2.60;;;;;;;8.86;100.00;98571.38;2600519;28;20041;-84
2023/06/01 04:09:37;;;;;;;4.50;2.60;;;;;;;8.88;100.00;98573.97;2591855;28;20042;-84
2023/06/01 04:10:53;;;;;;;8.77;2.85;;;;;;;8.91;100.00;98576.53;2595226;28;20077;-84
2023/06/01 04:12:10;;;;;;;3.70;2.55;;;;;;;8.93;100.00;98576.47;2602964;28;20211;-83
2023/06/01 04:13:26;;;;;;;4.40;2.92;;;;;;;8.94;100.00;98579.06;2602182;28;20397;-85
2023/06/01 04:14:42;;;;;;;3.80;2.30;;;;;;;8.93;100.00;98577.34;2603049;28;20091;-84
2023/06/01 04:15:57;;;;;;;5.05;2.70;;;;;;;8.96;100.00;98577.28;2603107;28;20488;-84
2023/06/01 04:17:13;;;;;;;4.72;2.67;;;;;;;8.96;100.00;98577.28;2602956;28;20132;-84
2023/06/01 04:18:28;;;;;;;4.05;2.83;;;;;;;8.80;100.00;98574.13;2603907;28;20045;-85
2023/06/01 04:19:47;;;;;;;4.82;2.72;;;;;;;8.72;100.00;98570.78;2603669;28;20045;-84
2023/06/01 04:21:03;;;;;;;5.80;2.97;;;;;;;8.62;100.00;98577.91;2603649;28;20486;-85
2023/06/01 04:22:18;;;;;;;7.95;2.47;;;;;;;8.67;100.00;98576.06;2600836;28;20179;-85
2023/06/01 04:23:34;;;;;;;3.63;2.38;;;;;;;8.70;100.00;98581.22;2605400;28;20207;-85
2023/06/01 04:24:50;;;;;;;4.40;3.40;;;;;;;8.86;100.00;98578.34;2602104;28;20057;-86
2023/06/01 04:26:06;;;;;;;5.60;2.90;;;;;;;9.03;100.00;98583.25;2603273;28;20107;-85
2023/06/01 04:27:24;;;;;;;4.53;3.05;;;;;;;9.00;100.00;98580.69;2604754;28;20420;-85
2023/06/01 04:28:43;;;;;;;5.20;3.35;;;;;;;9.02;100.00;98578.91;2603011;28;20474;-85
2023/06/01 04:29:59;;;;;;;5.57;3.72;;;;;;;9.05;100.00;98576.25;2602574;28;20049;-86
2023/06/01 04:31:18;;;;;;;6.55;3.83;;;;;;;9.17;100.00;98583.00;2592524;28;20848;-85
2023/06/01 04:32:39;;;;;;;4.80;2.92;;;;;;;9.30;100.00;98580.97;2597351;28;20128;-85
2023/06/01 04:33:56;;;;;;;6.82;3.08;;;;;;;9.38;100.00;98580.81;2601922;28;20180;-85
2023/06/01 04:35:11;;;;;;;5.25;3.13;;;;;;;9.42;100.00;98578.09;2602924;28;20104;-84
2023/06/01 04:36:32;;;;;;;6.25;2.97;;;;;;;9.42;100.00;98585.94;2601596;28;20566;-84
2023/06/01 04:37:49;;;;;;;4.15;3.10;;;;;;;9.46;100.00;98578.91;2601825;28;20061;-84
2023/06/01 04:39:08;;;;;;;3.95;2.67;;;;;;;9.52;100.00;98584.00;2601798;28;20045;-85
2023/06/01 04:40:24;;;;;;;4.82;3.10;;;;;;;9.59;100.00;98584.72;2601502;28;20124;-86
2023/06/01 04:41:39;;;;;;;9.48;3.20;;;;;;;9.45;100.00;98580.66;2604635;28;20056;-86
2023/06/01 04:42:57;;;;;;;5.97;3.47;;;;;;;9.50;100.00;98582.28;2602341;28;20056;-86
2023/06/01 04:44:13;;;;;;;4.53;3.03;;;;;;;9.57;100.00;98579.56;2603001;28;20046;-86
2023/06/01 04:45:33;;;;;;;5.18;2.90;;;;;;;9.66;100.00;98570.63;2603919;28;20053;-86
2023/06/01 04:46:51;;;;;;;5.07;3.20;;;;;;;9.77;100.00;98573.00;2601733;28;20826;-84
2023/06/01 04:48:09;;;;;;;4.00;3.00;;;;;;;9.83;100.00;98572.84;2602509;28;20083;-84
2023/06/01 04:49:28;;;;;;;10.57;3.70;;;;;;;9.93;100.00;98575.25;2601463;28;20083;-84
2023/06/01 04:50:44;;;;;;;4.70;3.13;;;;;;;10.01;100.00;98573.34;2602941;28;20045;-84
2023/06/01 04:52:00;;;;;;;6.60;2.60;;;;;;;10.08;100.00;98574.91;2601701;28;20049;-84
2023/06/01 04:53:16;;;;;;;3.75;2.47;;;;;;;10.03;100.00;98575.00;2601275;28;20057;-85
2023/06/01 04:54:31;;;;;;;4.32;2.55;;;;;;;10.21;100.00;98578.09;2602128;28;20062;-84
2023/06/01 04:55:48;;;;;;;3.88;2.70;;;;;;;10.20;100.00;98579.00;2600728;28;20044;-84
2023/06/01 04:57:07;;;;;;;5.07;2.90;;;;;;;10.28;100.00;98573.56;2602762;28;20056;-85
2023/06/01 04:58:23;;;;;;;3.72;2.65;;;;;;;10.36;100.00;98573.38;2602839;28;20045;-84
2023/06/01 04:59:40;;;;;;;3.97;2.80;;;;;;;10.49;100.00;98576.56;2601400;28;20489;-84
2023/06/01 05:00:57;;;;;;;3.42;2.53;;;;;;;10.56;100.00;98573.75;2591591;28;20127;-84
2023/06/01 05:02:13;;;;;;;4.75;2.80;;;;;;;10.51;100.00;98567.78;2596434;28;20101;-84
2023/06/01 05:03:29;;;;;;;3.90;2.97;;;;;;;10.35;100.00;98571.66;2587409;28;20649;-85
2023/06/01 05:04:45;;;;;;;5.10;3.30;;;;;;;10.49;100.00;98568.72;2602859;28;20428;-85
2023/06/01 05:06:01;;;;;;;4.25;2.58;;;;;;;10.54;100.00;98559.84;2602555;28;20048;-84
2023/06/01 05:07:16;;;;;;;5.65;3.00;;;;;;;10.45;100.00;98557.47;2593183;28;20049;-85
2023/06/01 05:08:33;;;;;;;5.35;2.70;;;;;;;10.71;100.00;98569.88;2595303;28;20045;-84
2023/06/01 05:09:48;;;;;;;5.50;2.88;;;;;;;10.65;100.00;98558.72;2602109;28;20416;-84
2023/06/01 05:11:04;;;;;;;4.38;2.58;;;;;;;10.72;100.00;98563.75;2591009;28;20045;-84
2023/06/01 05:12:20;;;;;;;3.38;2.60;;;;;;;10.93;100.00;98553.56;2601652;28;20187;-85
2023/06/01 05:13:36;;;;;;;3.67;2.70;;;;;;;10.77;100.00;98557.53;2604089;28;20103;-84
2023/06/01 05:14:51;;;;;;;7.03;2.72;;;;;;;10.66;100.00;98561.28;2602740;28;20056;-84
2023/06/01 05:16:08;;;;;;;3.95;2.80;;;;;;;10.84;100.00;98551.22;2606574;28;20049;-85
2023/06/01 05:17:23;;;;;;;3.70;2.80;;;;;;;10.96;100.00;98548.25;2591874;28;20516;-85
2023/06/01 05:18:40;;;;;;;7.85;2.92;;;;;;;10.88;100.00;98547.63;2597152;28;20045;-85
2023/06/01 05:19:57;;;;;;;3.50;2.53;;;;;;;10.99;100.00;98552.53;2603118;28;20136;-85
2023/06/01 05:21:12;;;;;;;3.95;2.90;;;;;;;11.14;100.00;98546.88;2605786;28;20056;-84
2023/06/01 05:22:27;;;;;;;3.20;2.63;;;;;;;10.93;100.00;98550.13;2604678;28;20048;-85
2023/06/01 05:23:43;;;;;;;3.45;2.40;;;;;;;11.06;100.00;98548.88;2593425;28;20061;-85
2023/06/01 05:25:00;;;;;;;3.22;2.67;;;;;;;11.22;100.00;98548.44;2603819;28;20051;-85
2023/06/01 05:26:16;;;;;;;3.58;2.60;;;;;;;11.20;100.00;98545.00;2604039;28;20067;-85
2023/06/01 05:27:32;;;;;;;4.72;2.70;;;;;;;11.22;100.00;98545.81;2605969;28;20569;-85
2023/06/01 05:28:47;;;;;;;4.60;2.67;;;;;;;11.30;100.00;98547.28;2605458;28;20072;-85
2023/06/01 05:30:03;;;;;;;6.30;2.80;;;;;;;11.51;100.00;98542.31;2604686;28;20052;-85
2023/06/01 05:31:20;;;;;;;4.32;2.70;;;;;;;11.58;100.00;98537.72;2604407;28;20111;-85
2023/06/01 05:32:36;;;;;;;7.07;2.78;;;;;;;11.58;100.00;98546.47;2604809;28;20038;-85
2023/06/01 05:33:51;;;;;;;5.72;3.00;;;;;;;11.58;100.00;98538.59;2605143;28;20099;-85
2023/06/01 05:35:07;;;;;;;6.20;3.30;;;;;;;11.68;100.00;98540.97;2604756;28;20095;-85
2023/06/01 05:36:23;;;;;;;5.93;3.30;;;;;;;11.56;100.00;98548.28;2603063;28;20049;-85
2023/06/01 05:37:38;;;;;;;6.18;2.80;;;;;;;11.72;100.00;98547.81;2603174;28;20493;-85
2023/06/01 05:38:54;;;;;;;5.70;3.15;;;;;;;11.84;100.00;98541.31;2613975;28;20103;-85
2023/06/01 05:40:10;;;;;;;5.18;2.75;;;;;;;11.88;100.00;98550.81;2617546;28;20060;-85
2023/06/01 05:41:26;;;;;;;4.03;2.90;;;;;;;11.84;100.00;98547.44;2615664;28;20053;-86
2023/06/01 05:42:41;;;;;;;4.15;2.65;;;;;;;12.14;100.00;98551.75;2613876;28;20049;-82
2023/06/01 05:43:57;;;;;;;6.53;2.80;;;;;;;11.82;100.00;98540.50;2604542;28;20053;-84
2023/06/01 05:45:13;;;;;;;4.53;3.08;;;;;;;12.18;100.00;98540.28;2610979;28;20048;-83
2023/06/01 05:46:29;;;;;;;4.55;2.80;;;;;;;12.25;100.00;98543.56;2614420;28;20129;-86
2023/06/01 05:47:44;;;;;;;7.15;2.88;;;;;;;12.28;100.00;98540.81;2616155;28;20065;-86
2023/06/01 05:49:00;;;;;;;6.15;2.70;;;;;;;12.29;100.00;98539.91;2613491;28;20048;-93
2023/06/01 05:50:16;;;;;;;4.45;3.08;;;;;;;12.33;100.00;98538.88;2616120;28;20059;-87
2023/06/01 05:51:36;;;;;;;4.78;2.90;;;;;;;12.65;100.00;98533.44;2615242;28;20408;-88
2023/06/01 05:52:52;;;;;;;4.05;2.60;;;;;;;12.42;100.00;98537.72;2615847;28;20053;-85
2023/06/01 05:54:07;;;;;;;5.85;3.03;;;;;;;12.54;100.00;98536.47;2616334;28;20051;-85
2023/06/01 05:55:23;;;;;;;3.63;3.00;;;;;;;12.56;100.00;98537.25;2615681;28;20049;-84
2023/06/01 05:56:40;;;;;;;3.28;2.20;;;;;;;12.72;100.00;98540.22;2614713;28;20056;-84
2023/06/01 05:57:55;;;;;;;3.30;2.28;;;;;;;12.79;100.00;98536.44;2602683;28;20744;-84
2023/06/01 05:59:11;;;;;;;3.30;2.15;;;;;;;12.96;100.00;98535.84;2608341;28;20063;-84
2023/06/01 06:00:26;;;;;;;7.00;2.50;;;;;;;13.03;100.00;98532.97;2613652;28;20107;-85
2023/06/01 06:01:44;;;;;;;3.83;2.10;;;;;;;13.31;100.00;98532.81;2616835;28;20052;-84
2023/06/01 06:02:59;;;;;;;4.78;2.30;;;;;;;13.20;100.00;98530.59;2616002;28;20108;-84
2023/06/01 06:04:15;;;;;;;3.70;2.58;;;;;;;13.48;100.00;98534.84;2616636;28;20589;-84